Williston Park, New York
Current Conditions -  °F | °C
As of 9:51 AM on Wednesday 26 Nov 2014 (Local Time) from KJFK Reporting Station
Ice Pellets Ice Pellets  
Wind Chill: -2°   Ceiling: 800
Heat Index:   Visibility: 2.5mi
Dew Point:   Wind: 16mph
Humidity: 89%   Direction: 20°NNE
Pressure: 30.12"   Gusts: NA
Location:  40.76°N, 73.64°W
Report Text: KJFK 261451Z 02014KT 2 1/2SM -RAPL BR BKN008 BKN015 OVC035 03/01 A3012 RMK AO2 SFC VIS 4 PLB26 SLP199 BKN008 V SCT P0012 60024 T00280011 58010
Loading
Personal Weather Stations






























Interactive Weather Map New forecast layout! Learn more

10-Day Weather Forecast

Advertisements
Track Severe Weather on mobile